sensor_id;sensor_type;location;lat;lon;timestamp;temperature;humidity
34837;DHT22;21053;50.848;4.652;2023-10-31T00:00:23;12.00;99.90
34837;DHT22;21053;50.848;4.652;2023-10-31T00:03:39;12.00;99.90
34837;DHT22;21053;50.848;4.652;2023-10-31T00:06:11;12.10;99.90
34837;DHT22;21053;50.848;4.652;2023-10-31T00:09:14;12.10;99.90
34837;DHT22;21053;50.848;4.652;2023-10-31T00:11:43;12.00;99.90
34837;DHT22;21053;50.848;4.652;2023-10-31T00:14:09;12.10;99.90
34837;DHT22;21053;50.848;4.652;2023-10-31T00:16:42;12.10;99.90
34837;DHT22;21053;50.848;4.652;2023-10-31T00:19:16;12.00;99.90
34837;DHT22;21053;50.848;4.652;2023-10-31T00:25:14;12.10;99.90
34837;DHT22;21053;50.848;4.652;2023-10-31T00:28:16;12.10;99.90
34837;DHT22;21053;50.848;4.652;2023-10-31T00:31:01;12.10;99.90
34837;DHT22;21053;50.848;4.652;2023-10-31T00:33:48;12.10;99.90
34837;DHT22;21053;50.848;4.652;2023-10-31T00:36:36;12.10;99.90
34837;DHT22;21053;50.848;4.652;2023-10-31T00:43:09;12.10;99.90
34837;DHT22;21053;50.848;4.652;2023-10-31T00:46:05;12.20;99.90
34837;DHT22;21053;50.848;4.652;2023-10-31T00:49:24;12.10;99.90
34837;DHT22;21053;50.848;4.652;2023-10-31T00:54:51;12.00;99.90
34837;DHT22;21053;50.848;4.652;2023-10-31T00:57:37;12.10;99.90
34837;DHT22;21053;50.848;4.652;2023-10-31T01:00:08;12.10;99.90
34837;DHT22;21053;50.848;4.652;2023-10-31T01:03:08;12.00;99.90
34837;DHT22;21053;50.848;4.652;2023-10-31T01:05:38;12.00;99.90
34837;DHT22;21053;50.848;4.652;2023-10-31T01:08:17;12.10;99.90
34837;DHT22;21053;50.848;4.652;2023-10-31T01:14:25;12.00;99.90
34837;DHT22;21053;50.848;4.652;2023-10-31T01:20:44;12.10;99.90
34837;DHT22;21053;50.848;4.652;2023-10-31T01:26:19;12.10;99.90
34837;DHT22;21053;50.848;4.652;2023-10-31T01:29:32;12.10;99.90
34837;DHT22;21053;50.848;4.652;2023-10-31T01:41:42;12.20;99.90
34837;DHT22;21053;50.848;4.652;2023-10-31T01:47:52;12.30;99.90
34837;DHT22;21053;50.848;4.652;2023-10-31T01:50:49;12.20;99.90
34837;DHT22;21053;50.848;4.652;2023-10-31T01:53:49;12.30;99.90
34837;DHT22;21053;50.848;4.652;2023-10-31T02:05:58;12.10;99.90
34837;DHT22;21053;50.848;4.652;2023-10-31T02:09:16;12.00;99.90
34837;DHT22;21053;50.848;4.652;2023-10-31T02:21:46;11.60;99.90
34837;DHT22;21053;50.848;4.652;2023-10-31T02:28:14;11.50;99.90
34837;DHT22;21053;50.848;4.652;2023-10-31T02:34:18;11.50;99.90
34837;DHT22;21053;50.848;4.652;2023-10-31T02:40:36;11.50;99.90
34837;DHT22;21053;50.848;4.652;2023-10-31T02:43:47;11.40;99.90
34837;DHT22;21053;50.848;4.652;2023-10-31T02:54:07;11.30;99.90
34837;DHT22;21053;50.848;4.652;2023-10-31T03:02:51;11.20;99.90
34837;DHT22;21053;50.848;4.652;2023-10-31T03:12:43;11.10;99.90
34837;DHT22;21053;50.848;4.652;2023-10-31T03:15:48;11.00;99.90
34837;DHT22;21053;50.848;4.652;2023-10-31T03:18:33;11.00;99.90
34837;DHT22;21053;50.848;4.652;2023-10-31T03:21:21;10.90;99.90
34837;DHT22;21053;50.848;4.652;2023-10-31T03:24:08;11.00;99.90
34837;DHT22;21053;50.848;4.652;2023-10-31T03:29:49;11.20;99.90
34837;DHT22;21053;50.848;4.652;2023-10-31T03:35:45;11.30;99.90
34837;DHT22;21053;50.848;4.652;2023-10-31T03:44:23;11.30;99.90
34837;DHT22;21053;50.848;4.652;2023-10-31T03:46:52;11.30;99.90
34837;DHT22;21053;50.848;4.652;2023-10-31T04:00:00;11.20;99.90
34837;DHT22;21053;50.848;4.652;2023-10-31T04:02:41;11.10;99.90
34837;DHT22;21053;50.848;4.652;2023-10-31T04:12:04;11.10;99.90
34837;DHT22;21053;50.848;4.652;2023-10-31T04:14:42;11.00;99.90
34837;DHT22;21053;50.848;4.652;2023-10-31T04:17:31;11.10;99.90
34837;DHT22;21053;50.848;4.652;2023-10-31T04:20:10;11.10;99.90
34837;DHT22;21053;50.848;4.652;2023-10-31T04:23:15;11.10;99.90
34837;DHT22;21053;50.848;4.652;2023-10-31T04:29:13;11.00;99.90
34837;DHT22;21053;50.848;4.652;2023-10-31T04:31:57;10.90;99.90
34837;DHT22;21053;50.848;4.652;2023-10-31T04:38:19;10.90;99.90
34837;DHT22;21053;50.848;4.652;2023-10-31T04:43:59;10.80;99.90
34837;DHT22;21053;50.848;4.652;2023-10-31T04:46:28;10.80;99.90
34837;DHT22;21053;50.848;4.652;2023-10-31T04:49:22;10.60;99.90
34837;DHT22;21053;50.848;4.652;2023-10-31T04:52:19;10.60;99.90
34837;DHT22;21053;50.848;4.652;2023-10-31T04:55:18;10.70;99.90
34837;DHT22;21053;50.848;4.652;2023-10-31T05:04:30;10.70;99.90
34837;DHT22;21053;50.848;4.652;2023-10-31T05:07:02;10.70;99.90
34837;DHT22;21053;50.848;4.652;2023-10-31T05:09:34;10.70;99.90
34837;DHT22;21053;50.848;4.652;2023-10-31T05:12:10;10.70;99.90
34837;DHT22;21053;50.848;4.652;2023-10-31T05:15:02;10.70;99.90
34837;DHT22;21053;50.848;4.652;2023-10-31T05:18:11;10.70;99.90
34837;DHT22;21053;50.848;4.652;2023-10-31T05:23:08;10.70;99.90
34837;DHT22;21053;50.848;4.652;2023-10-31T05:26:13;10.60;99.90
34837;DHT22;21053;50.848;4.652;2023-10-31T05:31:55;10.70;99.90
34837;DHT22;21053;50.848;4.652;2023-10-31T05:35:09;10.70;99.90
34837;DHT22;21053;50.848;4.652;2023-10-31T05:38:06;10.70;99.90
34837;DHT22;21053;50.848;4.652;2023-10-31T05:43:56;10.80;99.90
34837;DHT22;21053;50.848;4.652;2023-10-31T05:53:44;11.10;99.90
34837;DHT22;21053;50.848;4.652;2023-10-31T05:59:32;11.20;99.90
34837;DHT22;21053;50.848;4.652;2023-10-31T06:02:16;11.20;99.90
34837;DHT22;21053;50.848;4.652;2023-10-31T06:04:58;11.20;99.90
34837;DHT22;21053;50.848;4.652;2023-10-31T06:07:45;11.30;99.90
34837;DHT22;21053;50.848;4.652;2023-10-31T06:10:59;11.40;99.90
34837;DHT22;21053;50.848;4.652;2023-10-31T06:13:43;11.50;99.90
34837;DHT22;21053;50.848;4.652;2023-10-31T06:16:55;11.50;99.90
34837;DHT22;21053;50.848;4.652;2023-10-31T06:29:46;11.70;99.90
34837;DHT22;21053;50.848;4.652;2023-10-31T06:32:13;11.60;99.90
34837;DHT22;21053;50.848;4.652;2023-10-31T06:34:51;11.70;99.90
34837;DHT22;21053;50.848;4.652;2023-10-31T06:37:18;11.50;99.90
34837;DHT22;21053;50.848;4.652;2023-10-31T06:39:46;11.50;99.90
34837;DHT22;21053;50.848;4.652;2023-10-31T06:42:15;11.50;99.90
34837;DHT22;21053;50.848;4.652;2023-10-31T06:44:43;11.40;99.90
34837;DHT22;21053;50.848;4.652;2023-10-31T06:47:11;11.40;99.90
34837;DHT22;21053;50.848;4.652;2023-10-31T06:49:39;11.30;99.90
34837;DHT22;21053;50.848;4.652;2023-10-31T06:52:05;11.30;99.90
34837;DHT22;21053;50.848;4.652;2023-10-31T06:54:36;11.40;99.90
34837;DHT22;21053;50.848;4.652;2023-10-31T06:57:07;11.40;99.90
34837;DHT22;21053;50.848;4.652;2023-10-31T06:59:43;11.50;99.90
34837;DHT22;21053;50.848;4.652;2023-10-31T07:02:09;11.40;99.90
34837;DHT22;21053;50.848;4.652;2023-10-31T07:04:35;11.40;99.90
34837;DHT22;21053;50.848;4.652;2023-10-31T07:07:03;11.40;99.90
34837;DHT22;21053;50.848;4.652;2023-10-31T07:09:33;11.40;99.90
34837;DHT22;21053;50.848;4.652;2023-10-31T07:12:00;11.30;99.90
34837;DHT22;21053;50.848;4.652;2023-10-31T07:14:29;11.40;99.90
34837;DHT22;21053;50.848;4.652;2023-10-31T07:16:59;11.50;99.90
34837;DHT22;21053;50.848;4.652;2023-10-31T07:19:27;11.50;99.90
34837;DHT22;21053;50.848;4.652;2023-10-31T07:21:56;11.60;99.90
34837;DHT22;21053;50.848;4.652;2023-10-31T07:24:27;11.60;99.90
34837;DHT22;21053;50.848;4.652;2023-10-31T07:27:00;11.60;99.90
34837;DHT22;21053;50.848;4.652;2023-10-31T07:29:32;11.60;99.90
34837;DHT22;21053;50.848;4.652;2023-10-31T07:32:01;11.70;99.90
34837;DHT22;21053;50.848;4.652;2023-10-31T07:34:30;11.80;99.90
34837;DHT22;21053;50.848;4.652;2023-10-31T07:37:01;11.90;99.90
34837;DHT22;21053;50.848;4.652;2023-10-31T07:39:30;11.80;99.90
34837;DHT22;21053;50.848;4.652;2023-10-31T07:55:39;12.50;99.90
34837;DHT22;21053;50.848;4.652;2023-10-31T07:58:09;12.70;99.90
34837;DHT22;21053;50.848;4.652;2023-10-31T08:00:38;12.70;99.90
34837;DHT22;21053;50.848;4.652;2023-10-31T08:03:05;12.70;99.90
34837;DHT22;21053;50.848;4.652;2023-10-31T08:05:33;12.70;99.90
34837;DHT22;21053;50.848;4.652;2023-10-31T08:08:03;12.70;99.90
34837;DHT22;21053;50.848;4.652;2023-10-31T08:10:33;12.60;99.90
34837;DHT22;21053;50.848;4.652;2023-10-31T08:15:39;12.50;99.90
34837;DHT22;21053;50.848;4.652;2023-10-31T08:18:08;12.50;99.90
34837;DHT22;21053;50.848;4.652;2023-10-31T08:20:37;12.60;99.90
34837;DHT22;21053;50.848;4.652;2023-10-31T08:23:03;12.80;99.90
34837;DHT22;21053;50.848;4.652;2023-10-31T08:25:52;12.90;99.90
34837;DHT22;21053;50.848;4.652;2023-10-31T08:28:19;12.80;99.90
34837;DHT22;21053;50.848;4.652;2023-10-31T08:30:48;12.90;99.90
34837;DHT22;21053;50.848;4.652;2023-10-31T08:33:44;12.80;99.90
34837;DHT22;21053;50.848;4.652;2023-10-31T08:36:28;12.90;99.90
34837;DHT22;21053;50.848;4.652;2023-10-31T08:39:40;13.00;99.90
34837;DHT22;21053;50.848;4.652;2023-10-31T08:43:08;13.00;99.90
34837;DHT22;21053;50.848;4.652;2023-10-31T08:46:16;13.00;99.90
34837;DHT22;21053;50.848;4.652;2023-10-31T08:49:08;13.20;99.90
34837;DHT22;21053;50.848;4.652;2023-10-31T08:51:33;13.20;99.90
34837;DHT22;21053;50.848;4.652;2023-10-31T08:54:00;13.20;99.90
34837;DHT22;21053;50.848;4.652;2023-10-31T08:56:26;13.20;99.90
34837;DHT22;21053;50.848;4.652;2023-10-31T08:58:53;13.20;99.90
34837;DHT22;21053;50.848;4.652;2023-10-31T09:01:26;13.10;99.90
34837;DHT22;21053;50.848;4.652;2023-10-31T09:03:54;13.20;99.90
34837;DHT22;21053;50.848;4.652;2023-10-31T09:06:23;13.40;99.90
34837;DHT22;21053;50.848;4.652;2023-10-31T09:08:51;13.50;99.90
34837;DHT22;21053;50.848;4.652;2023-10-31T09:11:17;13.60;99.90
34837;DHT22;21053;50.848;4.652;2023-10-31T09:13:43;13.70;99.90
34837;DHT22;21053;50.848;4.652;2023-10-31T09:16:15;13.80;99.90
34837;DHT22;21053;50.848;4.652;2023-10-31T09:18:40;14.00;99.90
34837;DHT22;21053;50.848;4.652;2023-10-31T09:21:11;14.30;99.90
34837;DHT22;21053;50.848;4.652;2023-10-31T09:23:38;14.40;99.90
34837;DHT22;21053;50.848;4.652;2023-10-31T09:26:14;14.60;99.90
34837;DHT22;21053;50.848;4.652;2023-10-31T09:28:40;14.70;99.90
34837;DHT22;21053;50.848;4.652;2023-10-31T09:31:11;14.60;99.90
34837;DHT22;21053;50.848;4.652;2023-10-31T09:33:40;14.50;99.90
34837;DHT22;21053;50.848;4.652;2023-10-31T09:36:07;14.60;99.90
34837;DHT22;21053;50.848;4.652;2023-10-31T09:38:36;14.50;99.90
34837;DHT22;21053;50.848;4.652;2023-10-31T09:41:05;14.70;99.90
34837;DHT22;21053;50.848;4.652;2023-10-31T09:43:34;14.60;99.90
34837;DHT22;21053;50.848;4.652;2023-10-31T09:46:02;14.60;99.90
34837;DHT22;21053;50.848;4.652;2023-10-31T09:48:32;14.70;99.90
34837;DHT22;21053;50.848;4.652;2023-10-31T09:51:02;14.50;99.90
34837;DHT22;21053;50.848;4.652;2023-10-31T09:53:29;14.60;99.90
34837;DHT22;21053;50.848;4.652;2023-10-31T09:55:59;14.60;99.90
34837;DHT22;21053;50.848;4.652;2023-10-31T09:58:28;14.80;99.90
34837;DHT22;21053;50.848;4.652;2023-10-31T10:00:57;14.80;99.90
34837;DHT22;21053;50.848;4.652;2023-10-31T10:03:24;14.80;99.90
34837;DHT22;21053;50.848;4.652;2023-10-31T10:05:53;15.00;99.90
34837;DHT22;21053;50.848;4.652;2023-10-31T10:08:22;15.10;99.90
34837;DHT22;21053;50.848;4.652;2023-10-31T10:10:50;15.30;99.90
34837;DHT22;21053;50.848;4.652;2023-10-31T10:13:19;15.50;99.90
34837;DHT22;21053;50.848;4.652;2023-10-31T10:15:50;15.40;99.90
34837;DHT22;21053;50.848;4.652;2023-10-31T10:18:32;15.30;99.90
34837;DHT22;21053;50.848;4.652;2023-10-31T10:21:01;15.10;99.90
34837;DHT22;21053;50.848;4.652;2023-10-31T10:23:30;15.10;99.90
34837;DHT22;21053;50.848;4.652;2023-10-31T10:26:02;15.10;99.90
34837;DHT22;21053;50.848;4.652;2023-10-31T10:28:29;14.90;99.90
34837;DHT22;21053;50.848;4.652;2023-10-31T10:30:56;14.60;99.90
34837;DHT22;21053;50.848;4.652;2023-10-31T10:33:25;14.30;99.90
34837;DHT22;21053;50.848;4.652;2023-10-31T10:35:51;14.60;99.90
34837;DHT22;21053;50.848;4.652;2023-10-31T10:38:22;14.70;99.90
34837;DHT22;21053;50.848;4.652;2023-10-31T10:40:57;14.70;99.90
34837;DHT22;21053;50.848;4.652;2023-10-31T10:43:26;14.70;99.90
34837;DHT22;21053;50.848;4.652;2023-10-31T10:45:56;14.60;99.90
34837;DHT22;21053;50.848;4.652;2023-10-31T10:48:25;14.50;99.90
34837;DHT22;21053;50.848;4.652;2023-10-31T10:50:59;14.50;99.90
34837;DHT22;21053;50.848;4.652;2023-10-31T10:53:49;14.40;99.90
34837;DHT22;21053;50.848;4.652;2023-10-31T10:56:25;14.30;99.90
34837;DHT22;21053;50.848;4.652;2023-10-31T10:59:08;14.30;99.90
34837;DHT22;21053;50.848;4.652;2023-10-31T11:01:38;14.40;99.90
34837;DHT22;21053;50.848;4.652;2023-10-31T11:04:07;14.40;99.90
34837;DHT22;21053;50.848;4.652;2023-10-31T11:06:34;14.50;99.90
34837;DHT22;21053;50.848;4.652;2023-10-31T11:09:03;14.50;99.90
34837;DHT22;21053;50.848;4.652;2023-10-31T11:11:30;14.30;99.90
34837;DHT22;21053;50.848;4.652;2023-10-31T11:13:58;14.30;99.90
34837;DHT22;21053;50.848;4.652;2023-10-31T11:16:39;14.40;99.90
34837;DHT22;21053;50.848;4.652;2023-10-31T11:19:12;14.40;99.90
34837;DHT22;21053;50.848;4.652;2023-10-31T11:22:03;14.30;99.90
34837;DHT22;21053;50.848;4.652;2023-10-31T11:24:35;14.20;99.90
34837;DHT22;21053;50.848;4.652;2023-10-31T11:27:03;14.20;99.90
34837;DHT22;21053;50.848;4.652;2023-10-31T11:29:38;14.20;99.90
34837;DHT22;21053;50.848;4.652;2023-10-31T11:32:25;14.10;99.90
34837;DHT22;21053;50.848;4.652;2023-10-31T11:34:59;14.00;99.90
34837;DHT22;21053;50.848;4.652;2023-10-31T11:37:33;14.00;99.90
34837;DHT22;21053;50.848;4.652;2023-10-31T11:41:59;13.90;99.90
34837;DHT22;21053;50.848;4.652;2023-10-31T11:44:29;13.90;99.90
34837;DHT22;21053;50.848;4.652;2023-10-31T11:46:58;14.00;99.90
34837;DHT22;21053;50.848;4.652;2023-10-31T11:49:53;14.10;99.90
34837;DHT22;21053;50.848;4.652;2023-10-31T11:52:22;14.20;99.90
34837;DHT22;21053;50.848;4.652;2023-10-31T11:54:50;14.10;99.90
34837;DHT22;21053;50.848;4.652;2023-10-31T11:57:29;14.00;99.90
34837;DHT22;21053;50.848;4.652;2023-10-31T11:59:55;13.90;99.90
34837;DHT22;21053;50.848;4.652;2023-10-31T12:02:24;13.90;99.90
34837;DHT22;21053;50.848;4.652;2023-10-31T12:05:07;14.00;99.90
34837;DHT22;21053;50.848;4.652;2023-10-31T12:07:44;13.80;99.90
34837;DHT22;21053;50.848;4.652;2023-10-31T12:10:11;13.70;99.90
34837;DHT22;21053;50.848;4.652;2023-10-31T12:12:40;13.70;99.90
34837;DHT22;21053;50.848;4.652;2023-10-31T12:15:10;13.60;99.90
34837;DHT22;21053;50.848;4.652;2023-10-31T12:17:40;13.60;99.90
34837;DHT22;21053;50.848;4.652;2023-10-31T12:20:16;13.60;99.90
34837;DHT22;21053;50.848;4.652;2023-10-31T12:22:47;13.50;99.90
34837;DHT22;21053;50.848;4.652;2023-10-31T12:25:16;13.50;99.90
34837;DHT22;21053;50.848;4.652;2023-10-31T12:27:50;13.40;99.90
34837;DHT22;21053;50.848;4.652;2023-10-31T12:30:20;13.40;99.90
34837;DHT22;21053;50.848;4.652;2023-10-31T12:33:18;13.30;99.90
34837;DHT22;21053;50.848;4.652;2023-10-31T12:36:17;13.50;99.90
34837;DHT22;21053;50.848;4.652;2023-10-31T12:39:11;13.40;99.90
34837;DHT22;21053;50.848;4.652;2023-10-31T12:42:02;13.50;99.90
34837;DHT22;21053;50.848;4.652;2023-10-31T12:44:45;13.40;99.90
34837;DHT22;21053;50.848;4.652;2023-10-31T12:47:23;13.40;99.90
34837;DHT22;21053;50.848;4.652;2023-10-31T12:50:08;13.50;99.90
34837;DHT22;21053;50.848;4.652;2023-10-31T12:52:54;13.40;99.90
34837;DHT22;21053;50.848;4.652;2023-10-31T12:55:29;13.40;99.90
34837;DHT22;21053;50.848;4.652;2023-10-31T12:58:00;13.40;99.90
34837;DHT22;21053;50.848;4.652;2023-10-31T13:00:34;13.40;99.90
34837;DHT22;21053;50.848;4.652;2023-10-31T13:03:06;13.40;99.90
34837;DHT22;21053;50.848;4.652;2023-10-31T13:05:48;13.40;99.90
34837;DHT22;21053;50.848;4.652;2023-10-31T13:08:18;13.40;99.90
34837;DHT22;21053;50.848;4.652;2023-10-31T14:40:46;14.30;99.90
34837;DHT22;21053;50.848;4.652;2023-10-31T15:00:48;13.60;99.90
34837;DHT22;21053;50.848;4.652;2023-10-31T15:03:51;13.60;99.90
34837;DHT22;21053;50.848;4.652;2023-10-31T15:10:33;13.60;99.90
34837;DHT22;21053;50.848;4.652;2023-10-31T15:13:28;13.50;99.90
34837;DHT22;21053;50.848;4.652;2023-10-31T15:19:23;13.30;99.90
34837;DHT22;21053;50.848;4.652;2023-10-31T15:21:52;13.30;99.90
34837;DHT22;21053;50.848;4.652;2023-10-31T15:24:19;13.20;99.90
34837;DHT22;21053;50.848;4.652;2023-10-31T15:26:46;13.20;99.90
34837;DHT22;21053;50.848;4.652;2023-10-31T15:29:15;13.30;99.90
34837;DHT22;21053;50.848;4.652;2023-10-31T15:31:47;13.30;99.90
34837;DHT22;21053;50.848;4.652;2023-10-31T15:34:16;13.20;99.90
34837;DHT22;21053;50.848;4.652;2023-10-31T15:36:42;13.30;99.90
34837;DHT22;21053;50.848;4.652;2023-10-31T15:39:11;13.30;99.90
34837;DHT22;21053;50.848;4.652;2023-10-31T15:41:40;13.30;99.90
34837;DHT22;21053;50.848;4.652;2023-10-31T15:44:07;13.30;99.90
34837;DHT22;21053;50.848;4.652;2023-10-31T15:46:34;13.30;99.90
34837;DHT22;21053;50.848;4.652;2023-10-31T15:49:01;13.30;99.90
34837;DHT22;21053;50.848;4.652;2023-10-31T15:54:38;13.10;99.90
34837;DHT22;21053;50.848;4.652;2023-10-31T15:57:10;13.00;99.90
34837;DHT22;21053;50.848;4.652;2023-10-31T15:59:38;12.90;99.90
34837;DHT22;21053;50.848;4.652;2023-10-31T16:02:05;12.80;99.90
34837;DHT22;21053;50.848;4.652;2023-10-31T16:04:34;12.90;99.90
34837;DHT22;21053;50.848;4.652;2023-10-31T16:07:02;12.80;99.90
34837;DHT22;21053;50.848;4.652;2023-10-31T16:09:31;12.80;99.90
34837;DHT22;21053;50.848;4.652;2023-10-31T16:12:01;12.80;99.90
34837;DHT22;21053;50.848;4.652;2023-10-31T16:14:29;13.00;99.90
34837;DHT22;21053;50.848;4.652;2023-10-31T16:16:57;13.00;99.90
34837;DHT22;21053;50.848;4.652;2023-10-31T16:19:24;13.10;99.90
34837;DHT22;21053;50.848;4.652;2023-10-31T16:21:50;13.10;99.90
34837;DHT22;21053;50.848;4.652;2023-10-31T16:24:19;13.00;99.90
34837;DHT22;21053;50.848;4.652;2023-10-31T16:26:48;13.00;99.90
34837;DHT22;21053;50.848;4.652;2023-10-31T16:29:17;12.90;99.90
34837;DHT22;21053;50.848;4.652;2023-10-31T16:31:46;12.90;99.90
34837;DHT22;21053;50.848;4.652;2023-10-31T16:34:17;12.80;99.90
34837;DHT22;21053;50.848;4.652;2023-10-31T16:36:46;12.80;99.90
34837;DHT22;21053;50.848;4.652;2023-10-31T16:39:17;12.70;99.90
34837;DHT22;21053;50.848;4.652;2023-10-31T16:41:54;12.70;99.90
34837;DHT22;21053;50.848;4.652;2023-10-31T16:44:42;12.70;99.90
34837;DHT22;21053;50.848;4.652;2023-10-31T16:47:11;12.60;99.90
34837;DHT22;21053;50.848;4.652;2023-10-31T16:49:38;12.60;99.90
34837;DHT22;21053;50.848;4.652;2023-10-31T16:52:13;12.60;99.90
34837;DHT22;21053;50.848;4.652;2023-10-31T16:55:02;12.60;99.90
34837;DHT22;21053;50.848;4.652;2023-10-31T16:57:30;12.60;99.90
34837;DHT22;21053;50.848;4.652;2023-10-31T16:59:56;12.70;99.90
34837;DHT22;21053;50.848;4.652;2023-10-31T17:02:23;12.60;99.90
34837;DHT22;21053;50.848;4.652;2023-10-31T17:04:52;12.70;99.90
34837;DHT22;21053;50.848;4.652;2023-10-31T17:07:25;12.60;99.90
34837;DHT22;21053;50.848;4.652;2023-10-31T17:13:16;12.70;99.90
34837;DHT22;21053;50.848;4.652;2023-10-31T17:15:41;12.80;99.90
34837;DHT22;21053;50.848;4.652;2023-10-31T17:18:08;12.70;99.90
34837;DHT22;21053;50.848;4.652;2023-10-31T17:20:36;12.80;99.90
34837;DHT22;21053;50.848;4.652;2023-10-31T17:23:11;12.80;99.90
34837;DHT22;21053;50.848;4.652;2023-10-31T17:25:44;12.80;99.90
34837;DHT22;21053;50.848;4.652;2023-10-31T17:28:15;12.80;99.90
34837;DHT22;21053;50.848;4.652;2023-10-31T17:30:45;12.90;99.90
34837;DHT22;21053;50.848;4.652;2023-10-31T17:33:47;12.90;99.90
34837;DHT22;21053;50.848;4.652;2023-10-31T17:36:28;12.90;99.90
34837;DHT22;21053;50.848;4.652;2023-10-31T17:38:57;13.00;99.90
34837;DHT22;21053;50.848;4.652;2023-10-31T17:41:26;13.10;99.90
34837;DHT22;21053;50.848;4.652;2023-10-31T17:43:54;13.20;99.90
34837;DHT22;21053;50.848;4.652;2023-10-31T17:46:23;13.20;99.90
34837;DHT22;21053;50.848;4.652;2023-10-31T17:48:52;13.20;99.90
34837;DHT22;21053;50.848;4.652;2023-10-31T17:51:21;13.20;99.90
34837;DHT22;21053;50.848;4.652;2023-10-31T17:53:50;13.20;99.90
34837;DHT22;21053;50.848;4.652;2023-10-31T17:56:17;13.20;99.90
34837;DHT22;21053;50.848;4.652;2023-10-31T18:02:29;13.20;99.90
34837;DHT22;21053;50.848;4.652;2023-10-31T18:05:07;13.20;99.90
34837;DHT22;21053;50.848;4.652;2023-10-31T18:07:45;13.10;99.90
34837;DHT22;21053;50.848;4.652;2023-10-31T18:10:13;13.00;99.90
34837;DHT22;21053;50.848;4.652;2023-10-31T18:12:42;12.90;99.90
34837;DHT22;21053;50.848;4.652;2023-10-31T18:18:30;13.00;99.90
34837;DHT22;21053;50.848;4.652;2023-10-31T18:20:57;13.00;99.90
34837;DHT22;21053;50.848;4.652;2023-10-31T18:23:27;13.00;99.90
34837;DHT22;21053;50.848;4.652;2023-10-31T18:25:53;13.00;99.90
34837;DHT22;21053;50.848;4.652;2023-10-31T18:28:19;13.10;99.90
34837;DHT22;21053;50.848;4.652;2023-10-31T18:30:46;13.10;99.90
34837;DHT22;21053;50.848;4.652;2023-10-31T18:33:15;13.00;99.90
34837;DHT22;21053;50.848;4.652;2023-10-31T18:35:44;13.00;99.90
34837;DHT22;21053;50.848;4.652;2023-10-31T18:38:10;13.00;99.90
34837;DHT22;21053;50.848;4.652;2023-10-31T18:40:36;12.90;99.90
34837;DHT22;21053;50.848;4.652;2023-10-31T18:43:05;13.00;99.90
34837;DHT22;21053;50.848;4.652;2023-10-31T18:45:37;13.00;99.90
34837;DHT22;21053;50.848;4.652;2023-10-31T18:48:05;13.00;99.90
34837;DHT22;21053;50.848;4.652;2023-10-31T18:50:34;13.00;99.90
34837;DHT22;21053;50.848;4.652;2023-10-31T18:52:59;13.00;99.90
34837;DHT22;21053;50.848;4.652;2023-10-31T18:55:28;13.10;99.90
34837;DHT22;21053;50.848;4.652;2023-10-31T18:57:59;13.20;99.90
34837;DHT22;21053;50.848;4.652;2023-10-31T19:00:31;13.10;99.90
34837;DHT22;21053;50.848;4.652;2023-10-31T19:03:02;13.10;99.90
34837;DHT22;21053;50.848;4.652;2023-10-31T19:05:29;13.00;99.90
34837;DHT22;21053;50.848;4.652;2023-10-31T19:07:58;13.00;99.90
34837;DHT22;21053;50.848;4.652;2023-10-31T19:17:32;13.00;99.90
34837;DHT22;21053;50.848;4.652;2023-10-31T19:20:16;12.90;99.90
34837;DHT22;21053;50.848;4.652;2023-10-31T19:25:09;12.90;99.90
34837;DHT22;21053;50.848;4.652;2023-10-31T19:27:36;12.90;99.90
34837;DHT22;21053;50.848;4.652;2023-10-31T19:30:08;12.90;99.90
34837;DHT22;21053;50.848;4.652;2023-10-31T19:32:37;12.90;99.90
34837;DHT22;21053;50.848;4.652;2023-10-31T19:35:18;12.90;99.90
34837;DHT22;21053;50.848;4.652;2023-10-31T19:37:55;12.90;99.90
34837;DHT22;21053;50.848;4.652;2023-10-31T19:40:24;12.90;99.90
34837;DHT22;21053;50.848;4.652;2023-10-31T19:42:58;12.90;99.90
34837;DHT22;21053;50.848;4.652;2023-10-31T19:49:05;13.00;99.90
34837;DHT22;21053;50.848;4.652;2023-10-31T19:51:34;13.00;99.90
34837;DHT22;21053;50.848;4.652;2023-10-31T19:54:03;12.90;99.90
34837;DHT22;21053;50.848;4.652;2023-10-31T19:56:29;12.80;99.90
34837;DHT22;21053;50.848;4.652;2023-10-31T19:58:56;12.80;99.90
34837;DHT22;21053;50.848;4.652;2023-10-31T20:01:26;12.90;99.90
34837;DHT22;21053;50.848;4.652;2023-10-31T20:03:54;12.90;99.90
34837;DHT22;21053;50.848;4.652;2023-10-31T20:06:28;13.00;99.90
34837;DHT22;21053;50.848;4.652;2023-10-31T20:08:55;13.00;99.90
34837;DHT22;21053;50.848;4.652;2023-10-31T20:11:27;12.90;99.90
34837;DHT22;21053;50.848;4.652;2023-10-31T20:13:56;13.00;99.90
34837;DHT22;21053;50.848;4.652;2023-10-31T20:16:33;13.00;99.90
34837;DHT22;21053;50.848;4.652;2023-10-31T20:19:01;13.00;99.90
34837;DHT22;21053;50.848;4.652;2023-10-31T20:21:30;12.90;99.90
34837;DHT22;21053;50.848;4.652;2023-10-31T20:24:03;13.00;99.90
34837;DHT22;21053;50.848;4.652;2023-10-31T20:26:37;13.00;99.90
34837;DHT22;21053;50.848;4.652;2023-10-31T20:29:13;13.00;99.90
34837;DHT22;21053;50.848;4.652;2023-10-31T20:31:43;13.00;99.90
34837;DHT22;21053;50.848;4.652;2023-10-31T20:34:11;13.10;99.90
34837;DHT22;21053;50.848;4.652;2023-10-31T20:36:54;13.10;99.90
34837;DHT22;21053;50.848;4.652;2023-10-31T20:39:36;13.00;99.90
34837;DHT22;21053;50.848;4.652;2023-10-31T20:42:07;13.00;99.90
34837;DHT22;21053;50.848;4.652;2023-10-31T20:44:38;12.90;99.90
34837;DHT22;21053;50.848;4.652;2023-10-31T20:47:09;13.00;99.90
34837;DHT22;21053;50.848;4.652;2023-10-31T20:49:44;13.00;99.90
34837;DHT22;21053;50.848;4.652;2023-10-31T20:52:10;13.00;99.90
34837;DHT22;21053;50.848;4.652;2023-10-31T20:54:39;13.00;99.90
34837;DHT22;21053;50.848;4.652;2023-10-31T20:57:10;13.00;99.90
34837;DHT22;21053;50.848;4.652;2023-10-31T20:59:36;13.10;99.90
34837;DHT22;21053;50.848;4.652;2023-10-31T21:02:02;13.00;99.90
34837;DHT22;21053;50.848;4.652;2023-10-31T21:04:34;13.00;99.90
34837;DHT22;21053;50.848;4.652;2023-10-31T21:07:05;13.10;99.90
34837;DHT22;21053;50.848;4.652;2023-10-31T21:10:07;13.10;99.90
34837;DHT22;21053;50.848;4.652;2023-10-31T21:12:33;13.10;99.90
34837;DHT22;21053;50.848;4.652;2023-10-31T21:15:11;13.10;99.90
34837;DHT22;21053;50.848;4.652;2023-10-31T21:17:55;13.10;99.90
34837;DHT22;21053;50.848;4.652;2023-10-31T21:24:21;13.20;99.90
34837;DHT22;21053;50.848;4.652;2023-10-31T21:27:11;13.40;99.90
34837;DHT22;21053;50.848;4.652;2023-10-31T21:29:43;13.50;99.90
34837;DHT22;21053;50.848;4.652;2023-10-31T21:32:13;13.30;99.90
34837;DHT22;21053;50.848;4.652;2023-10-31T21:35:00;13.30;99.90
34837;DHT22;21053;50.848;4.652;2023-10-31T21:37:55;13.20;99.90
34837;DHT22;21053;50.848;4.652;2023-10-31T21:40:30;13.30;99.90
34837;DHT22;21053;50.848;4.652;2023-10-31T21:43:09;13.20;99.90